Time;durP1;ratioP1;P1;durP2;ratioP2;P2;SDS_P1;SDS_P2;PMS_P1;PMS_P2;Temp;Humidity;BMP_temperature;BMP_pressure;BME280_temperature;BME280_humidity;BME280_pressure;Samples;Min_cycle;Max_cycle;Signal;HPM_P1;HPM_P2
2022/07/10 00:02:08;;;;;;;10.30;1.77;;;;;;;13.40;70.38;101248.66;4984606;28;20069;-61
2022/07/10 00:04:35;;;;;;;9.85;1.92;;;;;;;13.41;70.29;101247.72;4996805;28;20090;-62
2022/07/10 00:07:03;;;;;;;13.32;2.47;;;;;;;13.45;69.92;101245.72;4988078;28;20046;-61
2022/07/10 00:09:30;;;;;;;8.82;1.60;;;;;;;13.49;69.78;101249.91;4980542;28;20062;-59
2022/07/10 00:11:58;;;;;;;7.38;1.83;;;;;;;13.46;69.42;101250.06;4986080;28;20054;-60
2022/07/10 00:14:25;;;;;;;5.93;1.98;;;;;;;13.50;69.55;101251.59;4989639;28;20054;-60
2022/07/10 00:16:52;;;;;;;7.70;1.50;;;;;;;13.53;69.36;101248.75;4982821;28;20348;-60
2022/07/10 00:19:19;;;;;;;10.23;1.85;;;;;;;13.53;69.46;101254.06;4982579;28;20776;-61
2022/07/10 00:21:47;;;;;;;7.53;1.63;;;;;;;13.52;69.63;101248.88;4990558;28;20065;-61
2022/07/10 00:24:14;;;;;;;9.50;1.63;;;;;;;13.52;69.57;101240.94;4985505;28;20069;-61
2022/07/10 00:26:41;;;;;;;10.07;2.17;;;;;;;13.52;69.62;101238.28;4982294;28;20061;-60
2022/07/10 00:29:08;;;;;;;9.45;1.77;;;;;;;13.55;69.29;101232.78;4988891;28;20148;-58
2022/07/10 00:31:35;;;;;;;6.80;1.30;;;;;;;13.55;69.80;101241.56;4986269;28;21809;-61
2022/07/10 00:34:03;;;;;;;5.63;1.42;;;;;;;13.57;69.64;101239.69;4981662;28;20410;-59
2022/07/10 00:36:30;;;;;;;6.10;1.13;;;;;;;13.61;69.37;101237.72;4994303;28;20061;-61
2022/07/10 00:38:59;;;;;;;13.38;2.10;;;;;;;13.62;69.62;101231.47;4978857;28;20536;-60
2022/07/10 00:41:26;;;;;;;8.00;1.52;;;;;;;13.56;69.90;101230.06;4985015;28;20505;-61
2022/07/10 00:43:57;;;;;;;7.38;1.58;;;;;;;13.60;70.13;101239.53;4990179;28;20066;-61
2022/07/10 00:46:26;;;;;;;8.38;1.35;;;;;;;13.62;69.83;101232.31;4983947;28;20557;-60
2022/07/10 00:48:53;;;;;;;9.32;1.60;;;;;;;13.63;69.51;101226.09;4980787;28;20042;-58
2022/07/10 00:51:22;;;;;;;10.18;1.48;;;;;;;13.56;70.11;101216.00;4985027;28;20081;-54
2022/07/10 00:53:50;;;;;;;6.93;1.20;;;;;;;13.49;70.09;101218.16;4971693;28;20051;-63
2022/07/10 00:56:19;;;;;;;8.50;2.03;;;;;;;13.48;70.54;101207.69;4966358;28;20063;-56
2022/07/10 00:58:47;;;;;;;12.82;2.22;;;;;;;13.49;70.31;101212.88;4994245;28;20047;-55
2022/07/10 01:01:15;;;;;;;4.70;1.60;;;;;;;13.52;70.16;101215.34;4990120;28;20447;-60
2022/07/10 01:03:43;;;;;;;7.30;1.30;;;;;;;13.51;70.49;101211.00;4981633;28;20073;-59
2022/07/10 01:06:10;;;;;;;7.82;1.27;;;;;;;13.48;70.17;101208.53;4987512;28;20050;-58
2022/07/10 01:08:37;;;;;;;6.18;1.10;;;;;;;13.50;70.54;101206.63;4981507;28;20511;-59
2022/07/10 01:11:05;;;;;;;9.10;1.98;;;;;;;13.50;70.26;101196.03;4991407;28;20054;-58
2022/07/10 01:13:33;;;;;;;7.43;1.58;;;;;;;13.48;70.41;101200.59;4996826;28;20491;-59
2022/07/10 01:16:00;;;;;;;7.07;1.35;;;;;;;13.48;70.68;101205.03;4979917;28;20054;-60
2022/07/10 01:18:27;;;;;;;6.95;1.55;;;;;;;13.48;70.28;101200.59;4986301;28;20426;-60
2022/07/10 01:20:55;;;;;;;10.55;1.35;;;;;;;13.45;70.79;101200.78;4969928;28;20097;-61
2022/07/10 01:23:23;;;;;;;7.10;1.58;;;;;;;13.47;70.41;101190.97;4979976;28;20085;-56
2022/07/10 01:25:50;;;;;;;5.07;0.90;;;;;;;13.47;70.91;101190.13;4981047;28;20042;-58
2022/07/10 01:28:20;;;;;;;8.65;1.77;;;;;;;13.49;70.60;101189.06;4987429;28;20553;-60
2022/07/10 01:30:48;;;;;;;7.68;1.60;;;;;;;13.49;70.80;101189.06;4991327;28;20060;-57
2022/07/10 01:33:15;;;;;;;7.78;1.40;;;;;;;13.45;70.86;101203.41;4983568;28;20058;-55
2022/07/10 01:35:43;;;;;;;8.07;1.27;;;;;;;13.41;70.87;101197.47;4986583;28;20524;-61
2022/07/10 01:38:10;;;;;;;12.82;1.95;;;;;;;13.42;71.34;101198.34;4981976;28;20055;-59
2022/07/10 01:40:37;;;;;;;8.98;1.88;;;;;;;13.44;71.37;101196.44;4989225;28;20070;-57
2022/07/10 01:43:04;;;;;;;10.52;1.38;;;;;;;13.45;71.29;101195.47;4989238;28;20055;-60
2022/07/10 01:45:32;;;;;;;6.13;1.10;;;;;;;13.43;71.37;101186.81;4990619;28;20058;-60
2022/07/10 01:47:59;;;;;;;10.02;1.52;;;;;;;13.38;71.70;101189.75;4983884;28;20061;-59
2022/07/10 01:50:26;;;;;;;5.57;1.38;;;;;;;13.40;71.38;101190.47;4987650;28;20078;-58
2022/07/10 01:52:54;;;;;;;6.85;1.35;;;;;;;13.39;71.64;101191.44;4988632;28;20055;-60
2022/07/10 01:55:21;;;;;;;11.27;1.27;;;;;;;13.41;71.94;101193.97;4985111;28;20480;-58
2022/07/10 01:57:48;;;;;;;12.90;1.52;;;;;;;13.41;71.40;101188.69;4992608;28;20220;-60
2022/07/10 02:00:15;;;;;;;5.20;1.20;;;;;;;13.39;71.64;101198.50;4994518;28;20049;-59
2022/07/10 02:04:40;;;;;;;7.00;1.05;;;;;;;13.39;71.67;101194.06;4990670;28;20046;-59
2022/07/10 02:05:29;;;;;;;4.72;1.23;;;;;;;13.40;71.58;101192.28;4963423;28;20046;-58
2022/07/10 02:07:57;;;;;;;5.75;1.60;;;;;;;13.35;71.63;101208.44;4969192;28;20242;-59
2022/07/10 02:10:24;;;;;;;5.18;1.40;;;;;;;13.34;71.55;101200.59;4987683;28;20118;-57
2022/07/10 02:12:51;;;;;;;7.20;1.10;;;;;;;13.31;71.82;101191.03;4984929;28;20502;-59
2022/07/10 02:15:18;;;;;;;7.00;1.23;;;;;;;13.32;72.11;101199.81;4971490;28;20053;-57
2022/07/10 02:17:45;;;;;;;6.45;1.38;;;;;;;13.34;72.02;101200.59;4985247;28;20080;-61
2022/07/10 02:20:12;;;;;;;6.85;1.00;;;;;;;13.33;72.12;101188.31;4973246;28;20050;-57
2022/07/10 02:22:40;;;;;;;5.88;1.10;;;;;;;13.23;72.57;101166.88;4986828;28;20503;-62
2022/07/10 02:25:07;;;;;;;7.10;1.23;;;;;;;13.22;72.83;101165.16;4987259;28;20054;-60
2022/07/10 02:27:34;;;;;;;7.05;0.80;;;;;;;13.23;73.21;101181.88;4993094;28;20479;-59
2022/07/10 02:30:02;;;;;;;4.03;0.70;;;;;;;13.25;73.39;101180.84;4992731;28;20054;-58
2022/07/10 02:32:29;;;;;;;4.82;0.90;;;;;;;13.26;72.96;101181.69;4987457;28;20065;-60
2022/07/10 02:34:56;;;;;;;5.32;1.40;;;;;;;13.22;73.37;101174.88;4986416;28;20136;-62
2022/07/10 02:37:25;;;;;;;6.90;1.20;;;;;;;13.17;74.04;101175.16;4986267;28;20526;-60
2022/07/10 02:39:52;;;;;;;6.35;0.95;;;;;;;13.08;74.93;101173.06;4976278;28;20686;-57
2022/07/10 02:42:19;;;;;;;5.55;1.40;;;;;;;13.09;75.05;101183.53;4997739;28;20379;-57
2022/07/10 02:44:46;;;;;;;10.02;0.95;;;;;;;13.14;75.16;101173.53;4982790;28;20394;-59
2022/07/10 02:47:13;;;;;;;7.80;1.27;;;;;;;13.09;75.50;101177.41;4984756;28;20065;-57
2022/07/10 02:49:41;;;;;;;3.08;0.82;;;;;;;13.06;75.94;101175.81;4988219;28;20043;-59
2022/07/10 02:52:08;;;;;;;5.97;1.25;;;;;;;13.06;75.90;101167.88;5001501;28;20058;-60
2022/07/10 02:54:35;;;;;;;7.20;1.65;;;;;;;13.03;76.34;101175.97;4996354;28;20068;-58
2022/07/10 02:57:02;;;;;;;10.90;1.35;;;;;;;13.00;76.62;101175.31;4982726;28;20057;-59
2022/07/10 02:59:29;;;;;;;9.07;1.40;;;;;;;12.98;76.46;101174.56;4985343;28;20533;-58
2022/07/10 03:01:57;;;;;;;4.47;0.82;;;;;;;12.93;77.08;101170.41;4977910;28;20487;-58
2022/07/10 03:04:24;;;;;;;6.18;0.90;;;;;;;12.92;77.12;101183.69;4992569;28;20154;-56
2022/07/10 03:06:51;;;;;;;5.78;1.13;;;;;;;12.91;76.92;101160.84;4983077;28;20058;-59
2022/07/10 03:09:18;;;;;;;5.18;1.20;;;;;;;12.90;77.01;101170.56;4986029;28;20053;-60
2022/07/10 03:11:45;;;;;;;7.50;1.23;;;;;;;12.86;77.39;101177.00;4990238;28;20503;-58
2022/07/10 03:14:12;;;;;;;5.25;1.30;;;;;;;12.89;77.19;101175.97;4989284;28;20054;-60
2022/07/10 03:16:40;;;;;;;7.15;1.45;;;;;;;12.86;77.42;101171.69;4981850;28;20058;-59
2022/07/10 03:19:07;;;;;;;4.95;0.80;;;;;;;12.85;77.75;101170.00;4987711;28;20273;-55
2022/07/10 03:21:34;;;;;;;4.75;1.00;;;;;;;12.85;77.76;101171.81;4984263;28;20704;-57
2022/07/10 03:24:01;;;;;;;6.53;1.00;;;;;;;12.85;77.95;101169.16;4978944;28;20544;-60
2022/07/10 03:26:29;;;;;;;9.07;1.73;;;;;;;12.81;78.19;101165.00;4981981;28;20054;-59
2022/07/10 03:28:56;;;;;;;4.70;1.00;;;;;;;12.81;78.12;101165.00;4964801;28;20050;-60
2022/07/10 03:31:23;;;;;;;9.73;1.23;;;;;;;12.82;78.11;101164.06;4983861;28;20046;-60
2022/07/10 03:33:52;;;;;;;7.95;1.20;;;;;;;12.84;78.65;101163.03;4983541;28;20399;-59
2022/07/10 03:36:19;;;;;;;5.80;1.25;;;;;;;12.78;78.94;101166.03;4983582;28;20080;-58
2022/07/10 03:38:47;;;;;;;10.70;1.65;;;;;;;12.83;78.71;101165.75;4984690;28;20522;-59
2022/07/10 03:41:14;;;;;;;5.13;1.25;;;;;;;12.82;78.63;101161.41;4984353;28;20054;-59
2022/07/10 03:43:41;;;;;;;5.95;1.20;;;;;;;12.83;78.91;101157.81;4985522;28;20049;-60
2022/07/10 03:46:08;;;;;;;4.88;1.50;;;;;;;12.77;79.31;101153.75;4984528;28;20089;-58
2022/07/10 03:48:36;;;;;;;4.72;1.17;;;;;;;12.80;79.67;101158.88;4965991;28;20046;-60
2022/07/10 03:51:03;;;;;;;9.75;1.35;;;;;;;12.83;79.53;101163.97;4990187;28;20049;-58
2022/07/10 03:53:30;;;;;;;8.68;1.80;;;;;;;12.78;79.91;101152.81;4965241;28;20062;-56
2022/07/10 03:56:00;;;;;;;8.57;1.92;;;;;;;12.85;79.71;101153.31;4986096;28;20371;-57
2022/07/10 03:58:27;;;;;;;8.85;1.00;;;;;;;12.85;79.52;101161.25;4979785;28;20402;-59
2022/07/10 04:00:54;;;;;;;5.97;1.10;;;;;;;12.86;80.11;101155.00;4980308;28;20499;-59
2022/07/10 04:03:21;;;;;;;4.88;0.90;;;;;;;12.82;80.39;101166.69;4981479;28;20062;-57
2022/07/10 04:05:48;;;;;;;7.43;1.35;;;;;;;12.85;80.79;101162.09;4985205;28;20127;-60
2022/07/10 04:08:16;;;;;;;4.60;1.23;;;;;;;12.74;81.25;101145.16;4987265;28;20062;-58
2022/07/10 04:10:43;;;;;;;4.18;1.10;;;;;;;12.72;81.51;101157.63;4987753;28;20479;-56
2022/07/10 04:13:10;;;;;;;8.27;1.30;;;;;;;12.73;82.08;101160.16;4987126;28;20239;-58
2022/07/10 04:15:37;;;;;;;3.72;1.08;;;;;;;12.80;81.86;101161.50;4981794;28;20048;-58
2022/07/10 04:18:04;;;;;;;12.20;1.52;;;;;;;12.82;81.76;101159.63;4989682;28;20050;-57
2022/07/10 04:20:32;;;;;;;5.35;1.25;;;;;;;12.81;81.97;101160.56;4984373;28;20082;-59
2022/07/10 04:22:59;;;;;;;8.25;1.50;;;;;;;12.87;81.67;101159.34;4985056;28;20059;-60
2022/07/10 04:25:26;;;;;;;3.90;1.40;;;;;;;12.93;81.25;101154.56;4986400;28;20066;-61
2022/07/10 04:27:53;;;;;;;6.57;1.67;;;;;;;13.02;81.67;101150.50;4982384;28;20383;-57
2022/07/10 04:30:20;;;;;;;5.40;1.10;;;;;;;13.06;80.99;101156.47;4981458;28;20046;-59
2022/07/10 04:32:47;;;;;;;6.68;1.23;;;;;;;12.93;81.33;101143.97;4990387;28;20157;-62
2022/07/10 04:35:15;;;;;;;6.07;1.20;;;;;;;12.98;81.14;101146.34;4981080;28;20062;-58
2022/07/10 04:37:42;;;;;;;4.75;1.10;;;;;;;12.95;81.73;101151.81;4984057;28;20587;-60
2022/07/10 04:40:10;;;;;;;4.80;1.25;;;;;;;13.02;81.58;101158.44;4979888;28;20077;-58
2022/07/10 04:42:37;;;;;;;8.73;1.80;;;;;;;13.00;81.11;101148.88;4983368;28;20096;-58
2022/07/10 04:45:05;;;;;;;8.65;1.38;;;;;;;13.04;81.40;101143.31;4982144;28;20467;-60
2022/07/10 04:47:32;;;;;;;4.05;1.15;;;;;;;13.02;81.41;101142.56;4986278;28;20046;-58
2022/07/10 04:49:59;;;;;;;8.75;1.30;;;;;;;13.00;81.36;101136.50;4982955;28;20365;-59
2022/07/10 04:52:27;;;;;;;10.77;1.20;;;;;;;13.12;81.50;101150.78;4989962;28;20060;-60
2022/07/10 04:54:54;;;;;;;7.63;1.70;;;;;;;13.07;81.05;101143.13;4974809;28;20086;-57
2022/07/10 04:57:21;;;;;;;12.55;2.38;;;;;;;13.11;80.76;101144.66;4987114;28;20570;-56
2022/07/10 04:59:48;;;;;;;5.15;0.93;;;;;;;13.16;80.98;101147.88;4991889;28;20060;-58
2022/07/10 05:02:15;;;;;;;9.43;1.90;;;;;;;13.15;81.28;101148.81;4981456;28;20043;-59
2022/07/10 05:04:43;;;;;;;5.18;1.27;;;;;;;13.25;80.83;101151.78;4987639;28;20133;-59
2022/07/10 05:07:10;;;;;;;5.80;1.77;;;;;;;13.24;80.31;101143.91;4979241;28;20046;-59
2022/07/10 05:09:37;;;;;;;6.28;1.02;;;;;;;13.25;80.31;101146.47;4973396;28;20124;-56
2022/07/10 05:12:04;;;;;;;8.45;2.15;;;;;;;13.22;80.64;101138.72;4987311;28;20051;-59
2022/07/10 05:14:32;;;;;;;5.07;1.20;;;;;;;13.23;80.55;101150.16;4995744;28;20062;-58
2022/07/10 05:16:59;;;;;;;8.25;1.33;;;;;;;13.29;80.33;101161.22;4995362;28;20064;-57
2022/07/10 05:19:27;;;;;;;7.00;1.40;;;;;;;13.27;80.74;101146.38;4983144;28;20058;-59
2022/07/10 05:21:55;;;;;;;7.43;1.80;;;;;;;13.29;80.51;101144.50;4985799;28;20317;-55
2022/07/10 05:24:22;;;;;;;4.95;1.20;;;;;;;13.23;81.37;101150.16;4986508;28;20058;-59
2022/07/10 05:26:49;;;;;;;7.65;1.73;;;;;;;13.29;80.83;101148.00;4991254;28;20046;-59
2022/07/10 05:29:16;;;;;;;11.73;1.70;;;;;;;13.39;80.55;101151.75;4988741;28;20383;-54
2022/07/10 05:31:44;;;;;;;6.13;1.55;;;;;;;13.36;80.70;101153.75;4980739;28;20066;-56
2022/07/10 05:34:11;;;;;;;8.57;1.48;;;;;;;13.38;80.14;101144.78;4988635;28;20062;-58
2022/07/10 05:36:38;;;;;;;8.40;1.67;;;;;;;13.52;79.98;101153.66;4975303;28;20406;-59
2022/07/10 05:39:06;;;;;;;8.63;1.95;;;;;;;13.51;79.81;101147.50;4981571;28;20363;-59
2022/07/10 05:41:33;;;;;;;17.95;2.58;;;;;;;13.58;79.23;101151.44;4975683;28;20124;-59
2022/07/10 05:44:00;;;;;;;5.97;1.60;;;;;;;13.63;79.22;101148.50;4984095;28;20043;-56
2022/07/10 05:46:28;;;;;;;5.60;1.45;;;;;;;13.63;79.38;101148.50;4988664;28;20140;-55
2022/07/10 05:48:55;;;;;;;7.35;1.83;;;;;;;13.56;79.34;101145.41;4974981;28;20198;-59
2022/07/10 05:51:22;;;;;;;9.30;1.85;;;;;;;13.61;79.27;101153.91;4983134;28;20058;-56
2022/07/10 05:54:05;;;;;;;11.60;1.73;;;;;;;13.68;78.92;101149.91;4984948;28;20050;-56
2022/07/10 05:56:32;;;;;;;6.10;1.75;;;;;;;13.77;78.88;101145.84;4977920;28;20050;-58
2022/07/10 05:58:59;;;;;;;6.70;1.45;;;;;;;13.86;78.16;101150.53;4977793;28;20046;-55
2022/07/10 06:01:26;;;;;;;10.68;1.40;;;;;;;13.78;77.68;101144.91;4966958;28;20046;-58
2022/07/10 06:03:54;;;;;;;12.05;2.25;;;;;;;13.77;77.52;101151.13;4979810;28;20081;-58
2022/07/10 06:06:21;;;;;;;6.25;1.80;;;;;;;13.84;78.04;101148.94;4978661;28;20055;-58
2022/07/10 06:08:48;;;;;;;12.20;2.17;;;;;;;13.90;78.03;101145.91;4976414;28;20046;-59
2022/07/10 06:11:16;;;;;;;10.18;1.50;;;;;;;13.90;77.28;101149.41;4979760;28;20073;-60
2022/07/10 06:13:43;;;;;;;5.65;1.60;;;;;;;13.78;77.75;101136.97;4978285;28;20058;-57
2022/07/10 06:16:10;;;;;;;8.63;2.20;;;;;;;13.70;77.88;101149.84;4966191;28;20058;-59
2022/07/10 06:18:37;;;;;;;7.75;1.33;;;;;;;13.72;77.84;101144.44;4988577;28;20065;-56
2022/07/10 06:21:05;;;;;;;9.45;1.60;;;;;;;13.71;77.56;101135.66;4985967;28;20058;-60
2022/07/10 06:23:32;;;;;;;6.65;1.90;;;;;;;13.60;77.77;101154.03;4989117;28;20077;-59
2022/07/10 06:25:59;;;;;;;8.55;1.92;;;;;;;13.71;77.93;101148.03;4984975;28;20389;-61
2022/07/10 06:28:27;;;;;;;8.13;1.50;;;;;;;13.83;77.23;101147.25;4966495;28;20058;-60
2022/07/10 06:30:54;;;;;;;9.98;1.92;;;;;;;14.01;76.80;101148.72;4982643;28;20065;-59
2022/07/10 06:33:26;;;;;;;12.95;2.35;;;;;;;13.87;76.38;101151.41;4984949;28;20050;-57
2022/07/10 06:35:53;;;;;;;15.32;2.40;;;;;;;14.00;75.78;101156.75;4961126;28;20530;-59
2022/07/10 06:38:21;;;;;;;11.27;2.13;;;;;;;14.06;74.66;101154.56;4970172;28;20423;-61
2022/07/10 06:40:49;;;;;;;10.95;1.88;;;;;;;14.16;73.80;101147.69;4998971;28;20200;-60
2022/07/10 06:43:18;;;;;;;8.55;1.73;;;;;;;14.26;73.97;101145.28;4962837;28;20038;-61
2022/07/10 06:45:46;;;;;;;8.07;1.88;;;;;;;14.47;72.79;101152.78;5002376;28;20057;-60
2022/07/10 06:48:13;;;;;;;8.77;1.70;;;;;;;14.32;72.84;101157.28;5008125;28;20062;-58
2022/07/10 06:50:43;;;;;;;6.15;1.75;;;;;;;14.26;73.36;101147.94;5003015;28;20050;-58
2022/07/10 06:53:15;;;;;;;6.72;1.60;;;;;;;14.30;73.44;101151.25;4964659;28;20406;-63
2022/07/10 06:55:42;;;;;;;9.68;1.50;;;;;;;14.21;73.86;101151.84;4981819;28;20061;-57
2022/07/10 06:58:09;;;;;;;15.20;2.17;;;;;;;14.26;73.49;101155.03;4997963;23;20057;-58
2022/07/10 07:00:36;;;;;;;8.65;1.65;;;;;;;14.44;72.24;101153.81;4983973;28;20053;-58
2022/07/10 07:03:04;;;;;;;8.93;2.25;;;;;;;14.50;71.81;101152.59;4984083;28;20388;-58
2022/07/10 07:05:31;;;;;;;14.57;2.10;;;;;;;14.61;71.23;101145.63;4984352;28;20050;-58
2022/07/10 07:07:58;;;;;;;14.77;3.15;;;;;;;14.68;70.04;101144.28;4970100;28;20530;-59
2022/07/10 07:10:25;;;;;;;9.05;1.30;;;;;;;14.69;69.16;101137.16;4964985;28;20130;-58
2022/07/10 07:12:53;;;;;;;7.72;1.65;;;;;;;14.76;69.93;101146.38;4962730;28;20685;-58
2022/07/10 07:15:23;;;;;;;6.72;1.58;;;;;;;14.96;68.99;101142.38;4968725;28;20058;-58
2022/07/10 07:17:56;;;;;;;7.78;2.20;;;;;;;14.65;69.17;101143.63;4966674;28;20047;-59
2022/07/10 07:23:12;;;;;;;12.27;2.17;;;;;;;15.18;66.76;101142.59;4965569;28;20050;-56
2022/07/10 07:25:41;;;;;;;10.38;1.65;;;;;;;15.16;65.15;101130.38;4970104;28;20046;-56
2022/07/10 07:28:10;;;;;;;12.38;2.22;;;;;;;15.10;66.71;101141.41;4969328;28;20169;-57
2022/07/10 07:30:37;;;;;;;12.38;2.20;;;;;;;15.36;65.81;101143.09;4964990;28;20093;-58
2022/07/10 07:33:10;;;;;;;10.18;2.10;;;;;;;15.29;65.44;101139.16;4964654;28;20051;-59
2022/07/10 07:35:43;;;;;;;9.25;1.60;;;;;;;15.46;65.46;101145.94;4958033;28;20103;-59
2022/07/10 07:38:13;;;;;;;10.30;1.90;;;;;;;15.66;64.49;101141.88;4960756;28;20414;-59
2022/07/10 07:40:42;;;;;;;12.55;1.88;;;;;;;15.62;63.00;101143.88;4969926;28;20077;-62
2022/07/10 07:43:11;;;;;;;10.90;2.05;;;;;;;15.65;61.98;101140.19;4961890;28;20080;-54
2022/07/10 07:45:38;;;;;;;4.40;1.75;;;;;;;15.85;61.69;101139.63;4968962;28;20058;-59
2022/07/10 07:48:07;;;;;;;13.73;2.25;;;;;;;16.03;60.39;101148.03;4969054;28;20766;-57
2022/07/10 07:50:35;;;;;;;11.38;1.90;;;;;;;16.17;60.06;101144.38;4963031;28;20098;-59
2022/07/10 07:53:04;;;;;;;8.18;1.45;;;;;;;16.37;58.36;101150.84;4971529;28;20053;-57
2022/07/10 07:55:33;;;;;;;10.20;2.08;;;;;;;16.16;58.09;101143.50;4973638;28;20137;-57
2022/07/10 07:58:02;;;;;;;9.77;2.10;;;;;;;16.34;57.37;101133.31;4973764;28;20046;-55
2022/07/10 08:00:30;;;;;;;12.00;2.63;;;;;;;16.34;57.06;101137.78;4975376;28;20066;-57
2022/07/10 08:02:57;;;;;;;9.85;1.80;;;;;;;16.13;57.36;101140.25;4976143;28;20043;-57
2022/07/10 08:05:25;;;;;;;9.75;1.92;;;;;;;16.27;57.82;101141.88;4968072;28;20486;-56
2022/07/10 08:07:54;;;;;;;13.20;2.38;;;;;;;16.39;57.21;101152.44;4972968;28;20058;-57
2022/07/10 08:10:23;;;;;;;8.82;2.13;;;;;;;16.41;56.49;101142.53;4965505;28;20054;-56
2022/07/10 08:12:50;;;;;;;12.80;2.03;;;;;;;16.34;57.07;101135.13;4953156;28;20058;-53
2022/07/10 08:15:22;;;;;;;8.27;1.88;;;;;;;16.38;56.45;101133.94;4967918;28;20054;-55
2022/07/10 08:17:51;;;;;;;12.77;1.75;;;;;;;16.54;56.65;101133.63;4976483;28;20062;-59
2022/07/10 08:20:18;;;;;;;7.35;2.00;;;;;;;16.99;56.07;101126.63;4962203;28;20063;-55
2022/07/10 08:22:46;;;;;;;8.95;1.70;;;;;;;17.32;54.30;101131.09;4967283;28;20423;-58
2022/07/10 08:25:14;;;;;;;12.15;1.95;;;;;;;17.63;53.30;101129.50;4967404;28;20050;-56
2022/07/10 08:27:41;;;;;;;10.85;1.70;;;;;;;17.35;52.71;101132.69;4975415;28;20059;-58
2022/07/10 08:30:09;;;;;;;8.18;2.10;;;;;;;17.81;51.61;101115.69;4967640;28;20055;-54
2022/07/10 08:32:38;;;;;;;10.63;1.90;;;;;;;17.76;52.59;101124.06;4971945;28;20055;-56
2022/07/10 08:35:06;;;;;;;8.50;2.03;;;;;;;17.93;51.63;101128.03;4974095;28;20893;-54
2022/07/10 08:37:40;;;;;;;8.60;1.60;;;;;;;17.54;51.27;101127.56;4980314;28;20526;-55
2022/07/10 08:40:12;;;;;;;8.95;2.05;;;;;;;17.12;52.39;101127.34;4969437;28;20059;-56
2022/07/10 08:42:44;;;;;;;7.30;1.70;;;;;;;17.04;52.88;101139.56;4973741;28;20043;-56
2022/07/10 08:45:12;;;;;;;5.55;1.63;;;;;;;17.13;51.80;101142.34;4975007;28;20046;-58
2022/07/10 08:47:41;;;;;;;8.88;2.10;;;;;;;16.53;54.34;101142.56;4975214;28;20062;-57
2022/07/10 08:50:18;;;;;;;13.63;2.10;;;;;;;16.62;54.56;101164.00;4977125;28;20065;-55
2022/07/10 08:52:55;;;;;;;9.70;1.90;;;;;;;16.45;55.29;101132.50;4975507;28;20604;-53
2022/07/10 08:55:25;;;;;;;8.60;2.25;;;;;;;16.63;55.29;101146.22;4979776;28;20058;-55
2022/07/10 08:57:55;;;;;;;10.23;2.20;;;;;;;16.63;55.10;101143.56;4971837;28;20093;-56
2022/07/10 09:00:23;;;;;;;8.25;1.83;;;;;;;16.68;55.41;101146.72;4973714;28;20065;-55
2022/07/10 09:02:50;;;;;;;10.90;2.25;;;;;;;16.63;55.61;101155.03;4977205;28;20049;-55
2022/07/10 09:05:17;;;;;;;8.93;2.65;;;;;;;16.49;56.33;101149.09;4969804;28;20054;-55
2022/07/10 09:07:45;;;;;;;8.07;1.73;;;;;;;16.51;56.76;101158.63;4963742;28;20055;-56
2022/07/10 09:10:12;;;;;;;10.57;1.88;;;;;;;16.49;56.88;101151.75;4973583;28;20054;-58
2022/07/10 09:12:50;;;;;;;12.73;2.13;;;;;;;16.64;56.74;101154.06;4971501;28;20084;-56
2022/07/10 09:15:20;;;;;;;8.80;2.20;;;;;;;16.52;55.80;101160.31;4974415;28;20054;-58
2022/07/10 09:17:58;;;;;;;12.45;2.00;;;;;;;16.76;54.33;101155.00;4975360;28;20055;-58
2022/07/10 09:20:27;;;;;;;12.65;2.13;;;;;;;16.92;53.40;101160.81;4980003;28;20061;-58
2022/07/10 09:22:54;;;;;;;12.55;2.10;;;;;;;17.00;52.37;101157.56;4975914;28;20619;-58
2022/07/10 09:25:21;;;;;;;11.20;1.55;;;;;;;16.92;51.67;101165.28;4973072;28;20055;-56
2022/07/10 09:27:53;;;;;;;12.18;1.67;;;;;;;17.14;51.63;101161.81;4976571;28;20492;-58
2022/07/10 09:30:49;;;;;;;7.05;1.77;;;;;;;17.64;50.45;101163.13;4972658;28;20039;-55
2022/07/10 09:33:26;;;;;;;15.82;2.45;;;;;;;17.62;50.06;101157.09;4965971;28;20502;-58
2022/07/10 09:36:09;;;;;;;7.90;1.92;;;;;;;17.52;50.02;101164.13;4968849;28;20582;-57
2022/07/10 09:38:46;;;;;;;5.75;1.80;;;;;;;17.82;49.83;101154.66;4968116;28;20069;-56
2022/07/10 09:41:21;;;;;;;14.07;2.05;;;;;;;17.99;49.21;101151.47;4949810;28;20147;-57
2022/07/10 09:43:50;;;;;;;10.30;2.58;;;;;;;17.89;49.61;101166.53;4951284;28;20062;-55
2022/07/10 09:46:22;;;;;;;7.63;1.85;;;;;;;17.64;49.77;101163.13;4964776;28;20055;-53
2022/07/10 09:49:04;;;;;;;6.63;1.75;;;;;;;17.78;48.80;101162.06;4970400;28;20077;-54
2022/07/10 09:51:33;;;;;;;14.05;1.92;;;;;;;17.61;49.64;101155.41;4968354;28;20058;-57
2022/07/10 09:54:05;;;;;;;9.90;2.15;;;;;;;17.77;49.35;101160.38;4968396;28;20518;-56
2022/07/10 09:56:53;;;;;;;9.63;1.90;;;;;;;17.61;49.06;101159.88;4949485;28;20069;-56
2022/07/10 09:59:21;;;;;;;12.63;2.20;;;;;;;17.70;49.16;101160.00;4953425;28;20071;-57
2022/07/10 10:01:50;;;;;;;11.85;2.38;;;;;;;17.96;48.89;101152.56;4970853;28;20055;-57
2022/07/10 10:04:24;;;;;;;11.77;2.38;;;;;;;17.70;49.09;101146.69;4965773;28;20051;-53
2022/07/10 10:06:53;;;;;;;12.38;2.95;;;;;;;17.77;49.96;101156.84;4952336;28;20059;-56
2022/07/10 10:09:34;;;;;;;10.45;1.90;;;;;;;17.91;49.15;101159.25;4953148;28;20059;-58
2022/07/10 10:12:05;;;;;;;5.60;1.60;;;;;;;17.91;48.95;101154.75;4952454;28;20055;-57
2022/07/10 10:14:32;;;;;;;10.63;1.88;;;;;;;17.98;48.66;101157.78;4970692;28;20031;-56
2022/07/10 10:17:00;;;;;;;8.98;1.90;;;;;;;18.09;47.94;101160.41;4970074;28;20050;-52
2022/07/10 10:22:18;;;;;;;9.57;1.92;;;;;;;17.96;48.64;101165.88;4960678;28;20053;-57
2022/07/10 10:24:45;;;;;;;7.15;2.17;;;;;;;18.07;48.04;101164.19;4965935;28;20051;-58
2022/07/10 10:27:13;;;;;;;9.35;1.55;;;;;;;17.94;47.63;101161.66;4982066;28;20531;-59
2022/07/10 10:29:41;;;;;;;8.20;1.83;;;;;;;18.10;47.54;101164.78;4976403;28;20105;-59
2022/07/10 10:32:09;;;;;;;15.15;2.45;;;;;;;18.25;47.75;101164.50;4987614;28;20071;-58
2022/07/10 10:34:44;;;;;;;8.80;1.92;;;;;;;18.58;47.55;101169.66;4991219;28;20046;-57
2022/07/10 10:37:38;;;;;;;8.55;1.77;;;;;;;18.51;47.06;101165.84;4968543;28;20057;-55
2022/07/10 10:40:07;;;;;;;10.20;1.67;;;;;;;18.94;46.12;101164.88;4952955;28;21089;-54
2022/07/10 10:42:36;;;;;;;13.80;2.15;;;;;;;19.31;46.02;101169.72;4953825;28;20063;-54
2022/07/10 10:45:23;;;;;;;8.90;2.40;;;;;;;19.14;46.01;101168.53;4962475;28;20063;-57
2022/07/10 10:48:08;;;;;;;7.13;1.80;;;;;;;19.36;45.35;101162.16;4967265;28;20063;-59
2022/07/10 10:50:56;;;;;;;10.35;2.28;;;;;;;19.37;44.96;101172.72;4969872;28;20051;-58
2022/07/10 10:53:27;;;;;;;11.40;1.73;;;;;;;19.48;44.06;101179.78;4972400;28;20059;-57
2022/07/10 10:56:03;;;;;;;6.95;2.00;;;;;;;18.95;44.30;101170.09;4958964;28;20074;-54
2022/07/10 10:58:37;;;;;;;7.28;1.90;;;;;;;18.84;44.48;101170.16;4952629;28;20078;-59
2022/07/10 11:01:21;;;;;;;9.13;2.20;;;;;;;19.26;43.89;101167.44;4966244;28;20089;-56
2022/07/10 11:04:04;;;;;;;6.38;2.00;;;;;;;19.45;43.15;101174.69;4960356;28;20058;-57
2022/07/10 11:06:50;;;;;;;12.40;2.90;;;;;;;19.62;43.34;101175.91;4971687;28;20065;-57
2022/07/10 11:09:33;;;;;;;8.05;1.88;;;;;;;19.42;43.46;101177.66;4972883;28;20051;-56
2022/07/10 11:12:08;;;;;;;5.97;1.45;;;;;;;19.23;43.77;101173.91;4971641;28;20051;-56
2022/07/10 11:14:37;;;;;;;10.30;1.70;;;;;;;18.85;44.33;101184.34;4974131;28;20534;-58
2022/07/10 11:17:05;;;;;;;6.63;1.80;;;;;;;18.80;45.16;101175.91;4972842;28;20058;-52
2022/07/10 11:19:33;;;;;;;11.02;2.03;;;;;;;18.83;45.43;101175.66;4972870;28;20059;-56
2022/07/10 11:22:10;;;;;;;6.90;1.60;;;;;;;19.05;45.08;101178.16;4967508;28;20074;-56
2022/07/10 11:24:41;;;;;;;10.20;2.70;;;;;;;19.46;44.96;101187.94;4970829;28;20042;-58
2022/07/10 11:27:29;;;;;;;7.05;1.70;;;;;;;19.52;43.19;101175.00;4971554;28;20523;-54
2022/07/10 11:29:58;;;;;;;9.98;1.73;;;;;;;19.57;43.82;101178.97;4965946;28;20055;-53
2022/07/10 11:32:25;;;;;;;9.00;2.15;;;;;;;19.86;43.45;101178.25;4952876;28;20057;-54
2022/07/10 11:34:52;;;;;;;9.07;2.45;;;;;;;19.73;43.99;101173.16;4951961;28;20062;-53
2022/07/10 11:37:20;;;;;;;7.32;1.85;;;;;;;19.96;43.58;101182.63;4967900;28;20416;-59